sensor_id;sensor_type;location;lat;lon;timestamp;P1;durP1;ratioP1;P2;durP2;ratioP2
2710;SDS011;20721;47.402;8.550;2022-10-26T00:01:01;5.18;;;5.18;;
2710;SDS011;20721;47.402;8.550;2022-10-26T00:01:54;5.59;;;5.59;;
2710;SDS011;20721;47.402;8.550;2022-10-26T00:02:53;5.76;;;5.76;;
2710;SDS011;20721;47.402;8.550;2022-10-26T00:03:55;6.10;;;6.10;;
2710;SDS011;20721;47.402;8.550;2022-10-26T00:05:54;5.86;;;5.86;;
2710;SDS011;20721;47.402;8.550;2022-10-26T00:07:54;6.63;;;6.63;;
2710;SDS011;20721;47.402;8.550;2022-10-26T00:08:55;7.30;;;7.30;;
2710;SDS011;20721;47.402;8.550;2022-10-26T00:09:53;6.72;;;6.72;;
2710;SDS011;20721;47.402;8.550;2022-10-26T00:10:55;7.31;;;7.31;;
2710;SDS011;20721;47.402;8.550;2022-10-26T00:12:56;7.92;;;7.92;;
2710;SDS011;20721;47.402;8.550;2022-10-26T00:13:54;7.71;;;7.71;;
2710;SDS011;20721;47.402;8.550;2022-10-26T00:14:53;8.62;;;8.62;;
2710;SDS011;20721;47.402;8.550;2022-10-26T00:15:53;8.72;;;8.72;;
2710;SDS011;20721;47.402;8.550;2022-10-26T00:16:53;7.84;;;7.84;;
2710;SDS011;20721;47.402;8.550;2022-10-26T00:17:53;8.54;;;8.54;;
2710;SDS011;20721;47.402;8.550;2022-10-26T00:18:54;7.98;;;7.98;;
2710;SDS011;20721;47.402;8.550;2022-10-26T00:19:53;7.61;;;7.61;;
2710;SDS011;20721;47.402;8.550;2022-10-26T00:20:53;8.32;;;8.32;;
2710;SDS011;20721;47.402;8.550;2022-10-26T00:21:53;8.41;;;8.41;;
2710;SDS011;20721;47.402;8.550;2022-10-26T00:22:53;7.56;;;7.56;;
2710;SDS011;20721;47.402;8.550;2022-10-26T00:23:53;7.77;;;7.77;;
2710;SDS011;20721;47.402;8.550;2022-10-26T00:24:54;7.93;;;7.89;;
2710;SDS011;20721;47.402;8.550;2022-10-26T00:25:54;7.80;;;7.80;;
2710;SDS011;20721;47.402;8.550;2022-10-26T00:27:53;8.31;;;8.31;;
2710;SDS011;20721;47.402;8.550;2022-10-26T00:28:54;8.50;;;8.50;;
2710;SDS011;20721;47.402;8.550;2022-10-26T00:29:53;8.10;;;8.10;;
2710;SDS011;20721;47.402;8.550;2022-10-26T00:30:53;9.20;;;9.20;;
2710;SDS011;20721;47.402;8.550;2022-10-26T00:31:54;8.37;;;8.37;;
2710;SDS011;20721;47.402;8.550;2022-10-26T00:32:53;8.53;;;8.53;;
2710;SDS011;20721;47.402;8.550;2022-10-26T00:33:54;9.11;;;9.11;;
2710;SDS011;20721;47.402;8.550;2022-10-26T00:34:53;8.34;;;8.34;;
2710;SDS011;20721;47.402;8.550;2022-10-26T00:35:57;9.14;;;9.14;;
2710;SDS011;20721;47.402;8.550;2022-10-26T00:37:54;9.17;;;9.17;;
2710;SDS011;20721;47.402;8.550;2022-10-26T00:38:58;9.39;;;9.10;;
2710;SDS011;20721;47.402;8.550;2022-10-26T00:39:53;9.39;;;9.10;;
2710;SDS011;20721;47.402;8.550;2022-10-26T00:40:54;9.03;;;9.03;;
2710;SDS011;20721;47.402;8.550;2022-10-26T00:41:53;8.76;;;8.76;;
2710;SDS011;20721;47.402;8.550;2022-10-26T00:42:54;8.55;;;8.55;;
2710;SDS011;20721;47.402;8.550;2022-10-26T00:43:53;8.89;;;8.89;;
2710;SDS011;20721;47.402;8.550;2022-10-26T00:44:55;8.13;;;8.13;;
2710;SDS011;20721;47.402;8.550;2022-10-26T00:45:55;8.24;;;8.24;;
2710;SDS011;20721;47.402;8.550;2022-10-26T00:46:53;8.88;;;8.88;;
2710;SDS011;20721;47.402;8.550;2022-10-26T00:47:57;8.37;;;8.37;;
2710;SDS011;20721;47.402;8.550;2022-10-26T00:48:57;8.27;;;8.27;;
2710;SDS011;20721;47.402;8.550;2022-10-26T00:49:57;8.63;;;8.63;;
2710;SDS011;20721;47.402;8.550;2022-10-26T00:50:57;8.54;;;8.54;;
2710;SDS011;20721;47.402;8.550;2022-10-26T00:52:54;8.19;;;8.19;;
2710;SDS011;20721;47.402;8.550;2022-10-26T00:53:54;8.47;;;8.47;;
2710;SDS011;20721;47.402;8.550;2022-10-26T00:54:54;8.74;;;8.74;;
2710;SDS011;20721;47.402;8.550;2022-10-26T00:55:56;8.09;;;8.09;;
2710;SDS011;20721;47.402;8.550;2022-10-26T00:56:55;8.67;;;8.67;;
2710;SDS011;20721;47.402;8.550;2022-10-26T00:57:54;8.85;;;8.85;;
2710;SDS011;20721;47.402;8.550;2022-10-26T00:58:54;8.72;;;8.72;;
2710;SDS011;20721;47.402;8.550;2022-10-26T00:59:54;8.25;;;8.25;;
2710;SDS011;20721;47.402;8.550;2022-10-26T01:00:54;8.54;;;8.54;;
2710;SDS011;20721;47.402;8.550;2022-10-26T01:01:55;8.39;;;8.39;;
2710;SDS011;20721;47.402;8.550;2022-10-26T01:02:54;8.90;;;8.90;;
2710;SDS011;20721;47.402;8.550;2022-10-26T01:03:54;8.25;;;8.25;;
2710;SDS011;20721;47.402;8.550;2022-10-26T01:06:54;6.96;;;6.96;;
2710;SDS011;20721;47.402;8.550;2022-10-26T01:07:54;8.69;;;8.69;;
2710;SDS011;20721;47.402;8.550;2022-10-26T01:08:54;6.80;;;6.80;;
2710;SDS011;20721;47.402;8.550;2022-10-26T01:09:54;5.98;;;5.98;;
2710;SDS011;20721;47.402;8.550;2022-10-26T01:10:54;6.15;;;6.15;;
2710;SDS011;20721;47.402;8.550;2022-10-26T01:11:53;6.02;;;6.02;;
2710;SDS011;20721;47.402;8.550;2022-10-26T01:12:54;6.21;;;6.21;;
2710;SDS011;20721;47.402;8.550;2022-10-26T01:13:54;7.40;;;7.40;;
2710;SDS011;20721;47.402;8.550;2022-10-26T01:16:58;6.44;;;6.44;;
2710;SDS011;20721;47.402;8.550;2022-10-26T01:18:07;8.11;;;8.11;;
2710;SDS011;20721;47.402;8.550;2022-10-26T01:21:01;8.10;;;8.10;;
2710;SDS011;20721;47.402;8.550;2022-10-26T01:22:07;8.04;;;8.04;;
2710;SDS011;20721;47.402;8.550;2022-10-26T01:27:07;8.08;;;8.08;;
2710;SDS011;20721;47.402;8.550;2022-10-26T01:27:59;7.74;;;7.74;;
2710;SDS011;20721;47.402;8.550;2022-10-26T01:30:13;7.98;;;7.98;;
2710;SDS011;20721;47.402;8.550;2022-10-26T01:37:07;7.33;;;7.33;;
2710;SDS011;20721;47.402;8.550;2022-10-26T01:39:01;7.67;;;7.67;;
2710;SDS011;20721;47.402;8.550;2022-10-26T01:39:59;7.95;;;7.95;;
2710;SDS011;20721;47.402;8.550;2022-10-26T01:41:07;8.24;;;8.06;;
2710;SDS011;20721;47.402;8.550;2022-10-26T01:41:57;8.24;;;8.06;;
2710;SDS011;20721;47.402;8.550;2022-10-26T01:42:58;7.18;;;7.18;;
2710;SDS011;20721;47.402;8.550;2022-10-26T01:44:00;6.71;;;6.71;;
2710;SDS011;20721;47.402;8.550;2022-10-26T01:45:03;6.92;;;6.92;;
2710;SDS011;20721;47.402;8.550;2022-10-26T01:45:56;6.92;;;6.92;;
2710;SDS011;20721;47.402;8.550;2022-10-26T01:46:56;7.79;;;7.79;;
2710;SDS011;20721;47.402;8.550;2022-10-26T01:47:56;7.19;;;7.19;;
2710;SDS011;20721;47.402;8.550;2022-10-26T01:48:55;8.09;;;8.09;;
2710;SDS011;20721;47.402;8.550;2022-10-26T01:49:57;7.70;;;7.70;;
2710;SDS011;20721;47.402;8.550;2022-10-26T01:50:55;7.78;;;7.78;;
2710;SDS011;20721;47.402;8.550;2022-10-26T01:51:56;8.02;;;8.02;;
2710;SDS011;20721;47.402;8.550;2022-10-26T01:52:54;8.67;;;8.67;;
2710;SDS011;20721;47.402;8.550;2022-10-26T01:53:56;8.81;;;8.80;;
2710;SDS011;20721;47.402;8.550;2022-10-26T01:55:59;9.51;;;9.51;;
2710;SDS011;20721;47.402;8.550;2022-10-26T01:56:59;9.51;;;9.51;;
2710;SDS011;20721;47.402;8.550;2022-10-26T01:57:54;9.63;;;9.63;;
2710;SDS011;20721;47.402;8.550;2022-10-26T02:01:02;8.43;;;8.43;;
2710;SDS011;20721;47.402;8.550;2022-10-26T02:03:03;8.28;;;8.27;;
2710;SDS011;20721;47.402;8.550;2022-10-26T02:09:07;9.47;;;9.47;;
2710;SDS011;20721;47.402;8.550;2022-10-26T02:10:13;9.47;;;9.47;;
2710;SDS011;20721;47.402;8.550;2022-10-26T02:11:08;8.51;;;8.51;;
2710;SDS011;20721;47.402;8.550;2022-10-26T02:11:57;8.51;;;8.51;;
2710;SDS011;20721;47.402;8.550;2022-10-26T02:13:00;9.51;;;9.51;;
2710;SDS011;20721;47.402;8.550;2022-10-26T02:14:08;9.47;;;9.47;;
2710;SDS011;20721;47.402;8.550;2022-10-26T02:15:03;9.54;;;9.54;;
2710;SDS011;20721;47.402;8.550;2022-10-26T02:15:59;9.65;;;9.65;;
2710;SDS011;20721;47.402;8.550;2022-10-26T02:16:54;9.65;;;9.65;;
2710;SDS011;20721;47.402;8.550;2022-10-26T02:17:59;9.99;;;9.99;;
2710;SDS011;20721;47.402;8.550;2022-10-26T02:20:02;9.51;;;9.45;;
2710;SDS011;20721;47.402;8.550;2022-10-26T02:21:00;9.51;;;9.45;;
2710;SDS011;20721;47.402;8.550;2022-10-26T02:21:59;9.90;;;9.90;;
2710;SDS011;20721;47.402;8.550;2022-10-26T02:22:57;10.08;;;10.08;;
2710;SDS011;20721;47.402;8.550;2022-10-26T02:23:56;10.22;;;10.22;;
2710;SDS011;20721;47.402;8.550;2022-10-26T02:24:55;9.77;;;9.77;;
2710;SDS011;20721;47.402;8.550;2022-10-26T02:25:58;10.63;;;10.63;;
2710;SDS011;20721;47.402;8.550;2022-10-26T02:26:56;10.55;;;10.55;;
2710;SDS011;20721;47.402;8.550;2022-10-26T02:27:57;10.96;;;10.94;;
2710;SDS011;20721;47.402;8.550;2022-10-26T02:29:00;10.68;;;10.68;;
2710;SDS011;20721;47.402;8.550;2022-10-26T02:29:56;10.68;;;10.68;;
2710;SDS011;20721;47.402;8.550;2022-10-26T02:30:56;9.65;;;9.63;;
2710;SDS011;20721;47.402;8.550;2022-10-26T02:31:55;10.57;;;10.27;;
2710;SDS011;20721;47.402;8.550;2022-10-26T02:32:56;11.44;;;11.15;;
2710;SDS011;20721;47.402;8.550;2022-10-26T02:33:56;11.18;;;10.96;;
2710;SDS011;20721;47.402;8.550;2022-10-26T02:34:55;10.81;;;10.61;;
2710;SDS011;20721;47.402;8.550;2022-10-26T02:36:56;10.19;;;10.04;;
2710;SDS011;20721;47.402;8.550;2022-10-26T02:38:56;10.61;;;10.56;;
2710;SDS011;20721;47.402;8.550;2022-10-26T02:39:55;11.83;;;11.78;;
2710;SDS011;20721;47.402;8.550;2022-10-26T02:40:55;10.88;;;10.88;;
2710;SDS011;20721;47.402;8.550;2022-10-26T02:41:54;11.44;;;11.43;;
2710;SDS011;20721;47.402;8.550;2022-10-26T02:42:55;10.45;;;10.45;;
2710;SDS011;20721;47.402;8.550;2022-10-26T02:44:21;9.78;;;9.78;;
2710;SDS011;20721;47.402;8.550;2022-10-26T02:44:59;11.32;;;11.29;;
2710;SDS011;20721;47.402;8.550;2022-10-26T02:45:58;11.47;;;11.21;;
2710;SDS011;20721;47.402;8.550;2022-10-26T02:46:54;11.12;;;10.89;;
2710;SDS011;20721;47.402;8.550;2022-10-26T02:47:54;10.69;;;10.64;;
2710;SDS011;20721;47.402;8.550;2022-10-26T02:48:54;10.74;;;10.74;;
2710;SDS011;20721;47.402;8.550;2022-10-26T02:49:54;9.84;;;9.84;;
2710;SDS011;20721;47.402;8.550;2022-10-26T02:53:13;11.14;;;11.14;;
2710;SDS011;20721;47.402;8.550;2022-10-26T02:54:01;11.25;;;11.25;;
2710;SDS011;20721;47.402;8.550;2022-10-26T02:55:03;10.73;;;10.73;;
2710;SDS011;20721;47.402;8.550;2022-10-26T02:55:57;10.73;;;10.73;;
2710;SDS011;20721;47.402;8.550;2022-10-26T02:57:07;11.07;;;10.83;;
2710;SDS011;20721;47.402;8.550;2022-10-26T02:57:58;11.07;;;10.83;;
2710;SDS011;20721;47.402;8.550;2022-10-26T02:58:57;10.64;;;10.44;;
2710;SDS011;20721;47.402;8.550;2022-10-26T02:59:56;10.34;;;10.34;;
2710;SDS011;20721;47.402;8.550;2022-10-26T03:00:54;12.19;;;12.19;;
2710;SDS011;20721;47.402;8.550;2022-10-26T03:01:54;10.95;;;10.95;;
2710;SDS011;20721;47.402;8.550;2022-10-26T03:03:03;10.46;;;10.46;;
2710;SDS011;20721;47.402;8.550;2022-10-26T03:03:56;10.46;;;10.46;;
2710;SDS011;20721;47.402;8.550;2022-10-26T03:04:54;10.46;;;10.26;;
2710;SDS011;20721;47.402;8.550;2022-10-26T03:05:54;8.85;;;8.81;;
2710;SDS011;20721;47.402;8.550;2022-10-26T03:07:02;7.75;;;7.75;;
2710;SDS011;20721;47.402;8.550;2022-10-26T03:07:54;7.75;;;7.75;;
2710;SDS011;20721;47.402;8.550;2022-10-26T03:08:54;8.06;;;8.06;;
2710;SDS011;20721;47.402;8.550;2022-10-26T03:09:54;6.57;;;6.57;;
2710;SDS011;20721;47.402;8.550;2022-10-26T03:10:54;6.13;;;6.13;;
2710;SDS011;20721;47.402;8.550;2022-10-26T03:11:54;6.68;;;6.68;;
2710;SDS011;20721;47.402;8.550;2022-10-26T03:12:54;6.19;;;6.19;;
2710;SDS011;20721;47.402;8.550;2022-10-26T03:13:54;5.64;;;5.64;;
2710;SDS011;20721;47.402;8.550;2022-10-26T03:14:54;5.80;;;5.80;;
2710;SDS011;20721;47.402;8.550;2022-10-26T03:15:54;5.37;;;5.37;;
2710;SDS011;20721;47.402;8.550;2022-10-26T03:16:54;5.78;;;5.78;;
2710;SDS011;20721;47.402;8.550;2022-10-26T03:17:54;6.09;;;6.09;;
2710;SDS011;20721;47.402;8.550;2022-10-26T03:18:54;5.86;;;5.86;;
2710;SDS011;20721;47.402;8.550;2022-10-26T03:19:54;5.31;;;5.31;;
2710;SDS011;20721;47.402;8.550;2022-10-26T03:20:54;6.32;;;6.32;;
2710;SDS011;20721;47.402;8.550;2022-10-26T03:21:54;6.29;;;6.29;;
2710;SDS011;20721;47.402;8.550;2022-10-26T03:22:56;6.39;;;6.39;;
2710;SDS011;20721;47.402;8.550;2022-10-26T03:23:56;6.81;;;6.81;;
2710;SDS011;20721;47.402;8.550;2022-10-26T03:24:54;6.88;;;6.88;;
2710;SDS011;20721;47.402;8.550;2022-10-26T03:25:56;6.32;;;6.32;;
2710;SDS011;20721;47.402;8.550;2022-10-26T03:26:54;6.43;;;6.43;;
2710;SDS011;20721;47.402;8.550;2022-10-26T03:27:56;5.57;;;5.57;;
2710;SDS011;20721;47.402;8.550;2022-10-26T03:28:54;5.85;;;5.85;;
2710;SDS011;20721;47.402;8.550;2022-10-26T03:29:54;5.43;;;5.43;;
2710;SDS011;20721;47.402;8.550;2022-10-26T03:30:58;5.55;;;5.55;;
2710;SDS011;20721;47.402;8.550;2022-10-26T03:31:54;5.55;;;5.55;;
2710;SDS011;20721;47.402;8.550;2022-10-26T03:32:54;6.13;;;6.13;;
2710;SDS011;20721;47.402;8.550;2022-10-26T03:33:54;5.91;;;5.91;;
2710;SDS011;20721;47.402;8.550;2022-10-26T03:34:54;7.10;;;7.07;;
2710;SDS011;20721;47.402;8.550;2022-10-26T03:35:54;5.98;;;5.98;;
2710;SDS011;20721;47.402;8.550;2022-10-26T03:36:54;5.97;;;5.97;;
2710;SDS011;20721;47.402;8.550;2022-10-26T03:37:54;6.42;;;6.42;;
2710;SDS011;20721;47.402;8.550;2022-10-26T03:39:54;6.73;;;6.73;;
2710;SDS011;20721;47.402;8.550;2022-10-26T03:40:57;6.93;;;6.93;;
2710;SDS011;20721;47.402;8.550;2022-10-26T03:41:54;6.84;;;6.84;;
2710;SDS011;20721;47.402;8.550;2022-10-26T03:42:54;6.67;;;6.67;;
2710;SDS011;20721;47.402;8.550;2022-10-26T03:43:54;6.59;;;6.59;;
2710;SDS011;20721;47.402;8.550;2022-10-26T03:44:56;6.52;;;6.52;;
2710;SDS011;20721;47.402;8.550;2022-10-26T03:45:54;7.31;;;7.31;;
2710;SDS011;20721;47.402;8.550;2022-10-26T03:46:54;6.64;;;6.64;;
2710;SDS011;20721;47.402;8.550;2022-10-26T03:47:55;7.03;;;7.03;;
2710;SDS011;20721;47.402;8.550;2022-10-26T03:48:54;6.35;;;6.35;;
2710;SDS011;20721;47.402;8.550;2022-10-26T03:49:54;6.93;;;6.93;;
2710;SDS011;20721;47.402;8.550;2022-10-26T03:50:56;6.41;;;6.41;;
2710;SDS011;20721;47.402;8.550;2022-10-26T03:51:54;6.68;;;6.68;;
2710;SDS011;20721;47.402;8.550;2022-10-26T03:52:55;6.57;;;6.57;;
2710;SDS011;20721;47.402;8.550;2022-10-26T03:53:54;6.32;;;6.32;;
2710;SDS011;20721;47.402;8.550;2022-10-26T03:54:54;6.58;;;6.58;;
2710;SDS011;20721;47.402;8.550;2022-10-26T03:55:54;6.52;;;6.52;;
2710;SDS011;20721;47.402;8.550;2022-10-26T03:56:54;6.03;;;6.03;;
2710;SDS011;20721;47.402;8.550;2022-10-26T03:57:54;5.86;;;5.86;;
2710;SDS011;20721;47.402;8.550;2022-10-26T03:58:54;5.80;;;5.80;;
2710;SDS011;20721;47.402;8.550;2022-10-26T03:59:54;5.48;;;5.48;;
2710;SDS011;20721;47.402;8.550;2022-10-26T04:00:54;5.39;;;5.39;;
2710;SDS011;20721;47.402;8.550;2022-10-26T04:01:54;5.43;;;5.43;;
2710;SDS011;20721;47.402;8.550;2022-10-26T04:03:03;5.20;;;5.20;;
2710;SDS011;20721;47.402;8.550;2022-10-26T04:03:54;5.20;;;5.20;;
2710;SDS011;20721;47.402;8.550;2022-10-26T04:04:54;5.22;;;5.20;;
2710;SDS011;20721;47.402;8.550;2022-10-26T04:05:54;4.88;;;4.82;;
2710;SDS011;20721;47.402;8.550;2022-10-26T04:06:54;5.33;;;5.29;;
2710;SDS011;20721;47.402;8.550;2022-10-26T04:08:01;5.35;;;5.35;;
2710;SDS011;20721;47.402;8.550;2022-10-26T04:08:54;5.35;;;5.35;;
2710;SDS011;20721;47.402;8.550;2022-10-26T04:09:54;5.72;;;5.72;;
2710;SDS011;20721;47.402;8.550;2022-10-26T04:10:54;6.37;;;6.37;;
2710;SDS011;20721;47.402;8.550;2022-10-26T04:11:54;6.39;;;6.39;;
2710;SDS011;20721;47.402;8.550;2022-10-26T04:12:54;6.82;;;6.82;;
2710;SDS011;20721;47.402;8.550;2022-10-26T04:13:56;7.42;;;7.42;;
2710;SDS011;20721;47.402;8.550;2022-10-26T04:14:54;6.84;;;6.84;;
2710;SDS011;20721;47.402;8.550;2022-10-26T04:15:54;7.29;;;7.29;;
2710;SDS011;20721;47.402;8.550;2022-10-26T04:16:54;7.54;;;7.54;;
2710;SDS011;20721;47.402;8.550;2022-10-26T04:20:54;8.31;;;8.31;;
2710;SDS011;20721;47.402;8.550;2022-10-26T04:23:54;8.36;;;8.36;;
2710;SDS011;20721;47.402;8.550;2022-10-26T04:24:54;8.37;;;8.37;;
2710;SDS011;20721;47.402;8.550;2022-10-26T04:25:54;8.19;;;8.19;;
2710;SDS011;20721;47.402;8.550;2022-10-26T04:26:54;8.44;;;8.44;;
2710;SDS011;20721;47.402;8.550;2022-10-26T04:27:54;8.96;;;8.96;;
2710;SDS011;20721;47.402;8.550;2022-10-26T04:30:56;8.24;;;8.24;;
2710;SDS011;20721;47.402;8.550;2022-10-26T04:31:54;8.53;;;8.53;;
2710;SDS011;20721;47.402;8.550;2022-10-26T04:33:54;8.84;;;8.84;;
2710;SDS011;20721;47.402;8.550;2022-10-26T04:34:54;8.46;;;8.46;;
2710;SDS011;20721;47.402;8.550;2022-10-26T04:35:58;8.23;;;8.23;;
2710;SDS011;20721;47.402;8.550;2022-10-26T04:36:54;8.32;;;8.32;;
2710;SDS011;20721;47.402;8.550;2022-10-26T04:37:56;8.63;;;8.63;;
2710;SDS011;20721;47.402;8.550;2022-10-26T04:39:54;8.18;;;8.18;;
2710;SDS011;20721;47.402;8.550;2022-10-26T04:41:54;8.40;;;8.40;;
2710;SDS011;20721;47.402;8.550;2022-10-26T04:42:55;8.29;;;8.29;;
2710;SDS011;20721;47.402;8.550;2022-10-26T04:44:54;8.10;;;8.10;;
2710;SDS011;20721;47.402;8.550;2022-10-26T04:45:54;8.80;;;8.72;;
2710;SDS011;20721;47.402;8.550;2022-10-26T04:46:54;8.73;;;8.73;;
2710;SDS011;20721;47.402;8.550;2022-10-26T04:48:03;7.89;;;7.89;;
2710;SDS011;20721;47.402;8.550;2022-10-26T04:48:56;8.60;;;8.60;;
2710;SDS011;20721;47.402;8.550;2022-10-26T04:49:54;7.83;;;7.83;;
2710;SDS011;20721;47.402;8.550;2022-10-26T04:50:57;7.55;;;7.55;;
2710;SDS011;20721;47.402;8.550;2022-10-26T04:52:59;7.75;;;7.75;;
2710;SDS011;20721;47.402;8.550;2022-10-26T04:53:54;7.75;;;7.75;;
2710;SDS011;20721;47.402;8.550;2022-10-26T04:54:54;7.76;;;7.76;;
2710;SDS011;20721;47.402;8.550;2022-10-26T04:55:56;8.13;;;8.13;;
2710;SDS011;20721;47.402;8.550;2022-10-26T04:56:54;7.70;;;7.70;;
2710;SDS011;20721;47.402;8.550;2022-10-26T04:57:55;6.96;;;6.96;;
2710;SDS011;20721;47.402;8.550;2022-10-26T04:58:54;7.14;;;7.14;;
2710;SDS011;20721;47.402;8.550;2022-10-26T04:59:54;7.20;;;7.20;;
2710;SDS011;20721;47.402;8.550;2022-10-26T05:00:54;6.98;;;6.98;;
2710;SDS011;20721;47.402;8.550;2022-10-26T05:01:54;7.21;;;7.21;;
2710;SDS011;20721;47.402;8.550;2022-10-26T05:02:58;7.33;;;7.33;;
2710;SDS011;20721;47.402;8.550;2022-10-26T05:03:57;7.24;;;7.24;;
2710;SDS011;20721;47.402;8.550;2022-10-26T05:04:54;5.97;;;5.97;;
2710;SDS011;20721;47.402;8.550;2022-10-26T05:05:57;6.66;;;6.66;;
2710;SDS011;20721;47.402;8.550;2022-10-26T05:06:54;6.95;;;6.95;;
2710;SDS011;20721;47.402;8.550;2022-10-26T05:08:02;6.19;;;6.19;;
2710;SDS011;20721;47.402;8.550;2022-10-26T05:08:54;6.19;;;6.19;;
2710;SDS011;20721;47.402;8.550;2022-10-26T05:09:54;6.43;;;6.43;;
2710;SDS011;20721;47.402;8.550;2022-10-26T05:10:58;6.52;;;6.52;;
2710;SDS011;20721;47.402;8.550;2022-10-26T05:11:54;6.44;;;6.44;;
2710;SDS011;20721;47.402;8.550;2022-10-26T05:12:59;6.01;;;6.01;;
2710;SDS011;20721;47.402;8.550;2022-10-26T05:13:55;6.01;;;6.01;;
2710;SDS011;20721;47.402;8.550;2022-10-26T05:14:54;5.89;;;5.89;;
2710;SDS011;20721;47.402;8.550;2022-10-26T05:15:54;6.04;;;6.04;;
2710;SDS011;20721;47.402;8.550;2022-10-26T05:16:54;5.67;;;5.67;;
2710;SDS011;20721;47.402;8.550;2022-10-26T05:17:58;5.33;;;5.33;;
2710;SDS011;20721;47.402;8.550;2022-10-26T05:18:56;5.85;;;5.85;;
2710;SDS011;20721;47.402;8.550;2022-10-26T05:20:01;4.85;;;4.85;;
2710;SDS011;20721;47.402;8.550;2022-10-26T05:20:54;4.85;;;4.85;;
2710;SDS011;20721;47.402;8.550;2022-10-26T05:21:56;4.86;;;4.86;;
2710;SDS011;20721;47.402;8.550;2022-10-26T05:23:02;4.85;;;4.85;;
2710;SDS011;20721;47.402;8.550;2022-10-26T05:23:58;4.85;;;4.85;;
2710;SDS011;20721;47.402;8.550;2022-10-26T05:24:54;4.06;;;4.06;;
2710;SDS011;20721;47.402;8.550;2022-10-26T05:25:54;3.66;;;3.66;;
2710;SDS011;20721;47.402;8.550;2022-10-26T05:26:55;4.11;;;4.11;;
2710;SDS011;20721;47.402;8.550;2022-10-26T05:27:58;4.47;;;4.47;;
2710;SDS011;20721;47.402;8.550;2022-10-26T05:28:54;4.56;;;4.56;;
2710;SDS011;20721;47.402;8.550;2022-10-26T05:29:54;4.49;;;4.49;;
2710;SDS011;20721;47.402;8.550;2022-10-26T05:30:57;4.14;;;4.14;;
2710;SDS011;20721;47.402;8.550;2022-10-26T05:31:54;3.77;;;3.77;;
2710;SDS011;20721;47.402;8.550;2022-10-26T05:33:02;3.80;;;3.80;;
2710;SDS011;20721;47.402;8.550;2022-10-26T05:33:57;3.80;;;3.80;;
2710;SDS011;20721;47.402;8.550;2022-10-26T05:34:54;4.76;;;4.76;;
2710;SDS011;20721;47.402;8.550;2022-10-26T05:35:54;4.80;;;4.80;;
2710;SDS011;20721;47.402;8.550;2022-10-26T05:36:54;4.23;;;4.23;;
2710;SDS011;20721;47.402;8.550;2022-10-26T05:37:54;4.17;;;4.17;;
2710;SDS011;20721;47.402;8.550;2022-10-26T05:38:58;4.22;;;4.22;;
2710;SDS011;20721;47.402;8.550;2022-10-26T05:39:54;4.15;;;4.15;;
2710;SDS011;20721;47.402;8.550;2022-10-26T05:41:54;3.95;;;3.95;;
2710;SDS011;20721;47.402;8.550;2022-10-26T05:42:58;5.42;;;5.42;;
2710;SDS011;20721;47.402;8.550;2022-10-26T05:43:56;5.99;;;5.99;;
2710;SDS011;20721;47.402;8.550;2022-10-26T05:44:54;5.15;;;5.15;;
2710;SDS011;20721;47.402;8.550;2022-10-26T05:45:54;4.88;;;4.88;;
2710;SDS011;20721;47.402;8.550;2022-10-26T05:46:55;4.75;;;4.75;;
2710;SDS011;20721;47.402;8.550;2022-10-26T05:47:55;4.51;;;4.51;;
2710;SDS011;20721;47.402;8.550;2022-10-26T05:48:54;5.88;;;5.88;;
2710;SDS011;20721;47.402;8.550;2022-10-26T05:49:54;5.25;;;5.25;;
2710;SDS011;20721;47.402;8.550;2022-10-26T05:51:54;4.48;;;4.48;;
2710;SDS011;20721;47.402;8.550;2022-10-26T05:52:55;5.60;;;5.60;;
2710;SDS011;20721;47.402;8.550;2022-10-26T05:53:54;4.84;;;4.84;;
2710;SDS011;20721;47.402;8.550;2022-10-26T05:54:54;5.33;;;5.33;;
2710;SDS011;20721;47.402;8.550;2022-10-26T05:55:55;5.64;;;5.64;;
2710;SDS011;20721;47.402;8.550;2022-10-26T05:56:55;5.03;;;5.03;;
2710;SDS011;20721;47.402;8.550;2022-10-26T05:57:54;6.09;;;6.09;;
2710;SDS011;20721;47.402;8.550;2022-10-26T05:58:55;5.27;;;5.27;;
2710;SDS011;20721;47.402;8.550;2022-10-26T05:59:54;6.27;;;6.27;;
2710;SDS011;20721;47.402;8.550;2022-10-26T06:06:03;6.21;;;6.21;;
2710;SDS011;20721;47.402;8.550;2022-10-26T06:06:56;6.21;;;6.21;;
2710;SDS011;20721;47.402;8.550;2022-10-26T06:07:54;6.26;;;6.26;;
2710;SDS011;20721;47.402;8.550;2022-10-26T06:08:55;6.92;;;6.92;;
2710;SDS011;20721;47.402;8.550;2022-10-26T06:09:55;6.02;;;6.02;;
2710;SDS011;20721;47.402;8.550;2022-10-26T06:10:55;6.36;;;6.36;;
2710;SDS011;20721;47.402;8.550;2022-10-26T06:11:55;6.16;;;6.16;;
2710;SDS011;20721;47.402;8.550;2022-10-26T06:12:55;6.52;;;6.52;;
2710;SDS011;20721;47.402;8.550;2022-10-26T06:13:55;5.72;;;5.72;;
2710;SDS011;20721;47.402;8.550;2022-10-26T06:14:54;6.07;;;6.07;;
2710;SDS011;20721;47.402;8.550;2022-10-26T06:16:06;6.10;;;6.10;;
2710;SDS011;20721;47.402;8.550;2022-10-26T06:22:59;6.04;;;6.04;;
2710;SDS011;20721;47.402;8.550;2022-10-26T06:23:57;5.45;;;5.45;;
2710;SDS011;20721;47.402;8.550;2022-10-26T06:25:02;5.02;;;5.02;;
2710;SDS011;20721;47.402;8.550;2022-10-26T06:27:11;5.14;;;5.14;;
2710;SDS011;20721;47.402;8.550;2022-10-26T06:28:07;5.14;;;5.14;;
2710;SDS011;20721;47.402;8.550;2022-10-26T06:29:13;5.24;;;5.24;;
2710;SDS011;20721;47.402;8.550;2022-10-26T06:30:55;5.67;;;5.67;;
2710;SDS011;20721;47.402;8.550;2022-10-26T06:31:55;5.70;;;5.70;;
2710;SDS011;20721;47.402;8.550;2022-10-26T06:32:55;5.63;;;5.63;;
2710;SDS011;20721;47.402;8.550;2022-10-26T06:33:56;6.02;;;6.02;;
2710;SDS011;20721;47.402;8.550;2022-10-26T06:36:15;5.71;;;5.71;;
2710;SDS011;20721;47.402;8.550;2022-10-26T06:36:56;5.71;;;5.71;;
2710;SDS011;20721;47.402;8.550;2022-10-26T06:37:55;5.74;;;5.74;;
2710;SDS011;20721;47.402;8.550;2022-10-26T06:38:58;5.91;;;5.91;;
2710;SDS011;20721;47.402;8.550;2022-10-26T06:39:55;6.07;;;6.07;;
2710;SDS011;20721;47.402;8.550;2022-10-26T06:40:56;5.29;;;5.29;;
2710;SDS011;20721;47.402;8.550;2022-10-26T06:41:55;6.50;;;6.50;;
2710;SDS011;20721;47.402;8.550;2022-10-26T06:42:54;7.26;;;7.26;;
2710;SDS011;20721;47.402;8.550;2022-10-26T06:43:55;6.85;;;6.85;;
2710;SDS011;20721;47.402;8.550;2022-10-26T06:44:55;6.63;;;6.63;;
2710;SDS011;20721;47.402;8.550;2022-10-26T06:46:06;6.26;;;6.26;;
2710;SDS011;20721;47.402;8.550;2022-10-26T06:48:03;6.16;;;6.11;;
2710;SDS011;20721;47.402;8.550;2022-10-26T06:50:17;5.69;;;5.68;;
2710;SDS011;20721;47.402;8.550;2022-10-26T06:50:54;5.69;;;5.68;;
2710;SDS011;20721;47.402;8.550;2022-10-26T06:51:59;5.85;;;5.84;;
2710;SDS011;20721;47.402;8.550;2022-10-26T06:54:57;6.80;;;6.80;;
2710;SDS011;20721;47.402;8.550;2022-10-26T06:56:55;7.33;;;7.33;;
2710;SDS011;20721;47.402;8.550;2022-10-26T06:57:55;6.75;;;6.75;;
2710;SDS011;20721;47.402;8.550;2022-10-26T06:58:55;6.53;;;6.53;;
2710;SDS011;20721;47.402;8.550;2022-10-26T06:59:59;6.49;;;6.49;;
2710;SDS011;20721;47.402;8.550;2022-10-26T07:00:56;5.65;;;5.65;;
2710;SDS011;20721;47.402;8.550;2022-10-26T07:01:55;6.32;;;6.32;;
2710;SDS011;20721;47.402;8.550;2022-10-26T07:02:55;6.19;;;6.19;;
2710;SDS011;20721;47.402;8.550;2022-10-26T07:03:54;6.75;;;6.75;;
2710;SDS011;20721;47.402;8.550;2022-10-26T07:04:54;6.05;;;6.05;;
2710;SDS011;20721;47.402;8.550;2022-10-26T07:05:55;6.20;;;6.20;;
2710;SDS011;20721;47.402;8.550;2022-10-26T07:06:55;6.33;;;6.33;;
2710;SDS011;20721;47.402;8.550;2022-10-26T07:08:54;6.57;;;6.57;;
2710;SDS011;20721;47.402;8.550;2022-10-26T07:09:55;6.89;;;6.89;;
2710;SDS011;20721;47.402;8.550;2022-10-26T07:10:55;5.90;;;5.90;;
2710;SDS011;20721;47.402;8.550;2022-10-26T07:11:54;6.03;;;6.03;;
2710;SDS011;20721;47.402;8.550;2022-10-26T07:12:54;5.78;;;5.78;;
2710;SDS011;20721;47.402;8.550;2022-10-26T07:13:56;6.14;;;6.14;;
2710;SDS011;20721;47.402;8.550;2022-10-26T07:14:55;6.21;;;6.21;;
2710;SDS011;20721;47.402;8.550;2022-10-26T07:15:55;6.19;;;6.19;;
2710;SDS011;20721;47.402;8.550;2022-10-26T07:16:54;6.42;;;6.42;;
2710;SDS011;20721;47.402;8.550;2022-10-26T07:17:55;6.58;;;6.58;;
2710;SDS011;20721;47.402;8.550;2022-10-26T07:18:54;6.96;;;6.96;;